createdAt,value
2022-11-06T00:01:43.147Z,100856.00
2022-11-06T00:04:11.060Z,100863.00
2022-11-06T00:06:49.843Z,100858.00
2022-11-06T00:09:19.834Z,100857.00
2022-11-06T00:11:48.833Z,100854.00
2022-11-06T00:14:18.809Z,100858.00
2022-11-06T00:16:47.823Z,100849.00
2022-11-06T00:19:16.594Z,100850.00
2022-11-06T00:21:44.902Z,100853.00
2022-11-06T00:24:14.773Z,100846.00
2022-11-06T00:26:43.276Z,100831.00
2022-11-06T00:29:14.664Z,100837.00
2022-11-06T00:31:43.820Z,100844.00
2022-11-06T00:34:11.818Z,100843.00
2022-11-06T00:36:39.842Z,100847.00
2022-11-06T00:39:07.727Z,100844.00
2022-11-06T00:41:35.550Z,100844.00
2022-11-06T00:44:04.607Z,100845.00
2022-11-06T00:46:32.741Z,100838.00
2022-11-06T00:49:01.854Z,100845.00
2022-11-06T00:51:32.237Z,100838.00
2022-11-06T00:54:01.722Z,100837.00
2022-11-06T00:56:30.227Z,100845.00
2022-11-06T00:59:00.880Z,100844.00
2022-11-06T01:01:31.567Z,100846.00
2022-11-06T01:04:02.692Z,100831.00
2022-11-06T01:06:32.782Z,100839.00
2022-11-06T01:09:00.684Z,100851.00
2022-11-06T01:11:46.515Z,100848.00
2022-11-06T01:14:19.055Z,100852.00
2022-11-06T01:16:48.187Z,100837.00
2022-11-06T01:19:18.727Z,100843.00
2022-11-06T01:21:49.291Z,100838.00
2022-11-06T01:24:18.852Z,100838.00
2022-11-06T01:27:12.144Z,100839.00
2022-11-06T01:29:34.916Z,100843.00
2022-11-06T01:32:02.947Z,100833.00
2022-11-06T01:34:32.075Z,100836.00
2022-11-06T01:36:59.822Z,100830.00
2022-11-06T01:39:27.541Z,100827.00
2022-11-06T01:41:55.489Z,100821.00
2022-11-06T01:45:18.254Z,100825.00
2022-11-06T01:47:46.345Z,100820.00
2022-11-06T01:50:17.517Z,100824.00
2022-11-06T01:52:47.057Z,100816.00
2022-11-06T01:55:17.667Z,100831.00
2022-11-06T01:57:46.005Z,100821.00
2022-11-06T02:00:14.839Z,100827.00
2022-11-06T02:02:42.883Z,100818.00
2022-11-06T02:05:10.765Z,100819.00
2022-11-06T02:07:41.161Z,100820.00
2022-11-06T02:10:09.857Z,100821.00
2022-11-06T02:12:49.616Z,100811.00
2022-11-06T02:15:26.970Z,100813.00
2022-11-06T02:18:08.735Z,100820.00
2022-11-06T02:20:42.538Z,100815.00
2022-11-06T02:23:38.625Z,100822.00
2022-11-06T02:26:24.201Z,100818.00
2022-11-06T02:28:55.800Z,100813.00
2022-11-06T02:31:27.769Z,100809.00
2022-11-06T02:34:00.471Z,100805.00
2022-11-06T02:36:32.073Z,100804.00
2022-11-06T02:39:04.402Z,100798.00
2022-11-06T02:41:35.077Z,100790.00
2022-11-06T02:44:08.866Z,100793.00
2022-11-06T02:46:40.904Z,100795.00
2022-11-06T02:49:13.111Z,100792.00
2022-11-06T02:51:45.731Z,100781.00
2022-11-06T02:54:15.053Z,100776.00
2022-11-06T02:56:46.941Z,100776.00
2022-11-06T02:59:20.201Z,100784.00
2022-11-06T03:01:51.859Z,100780.00
2022-11-06T03:04:23.014Z,100778.00
2022-11-06T03:06:55.069Z,100774.00
2022-11-06T03:09:28.512Z,100769.00
2022-11-06T03:12:01.917Z,100773.00
2022-11-06T03:14:36.028Z,100770.00
2022-11-06T03:17:12.896Z,100773.00
2022-11-06T03:19:48.078Z,100776.00
2022-11-06T03:22:20.052Z,100771.00
2022-11-06T03:24:53.426Z,100759.00
2022-11-06T03:27:23.900Z,100763.00
2022-11-06T03:29:59.447Z,100769.00
2022-11-06T03:32:31.481Z,100755.00
2022-11-06T03:35:06.553Z,100754.00
2022-11-06T03:37:38.145Z,100750.00
2022-11-06T03:40:11.671Z,100751.00
2022-11-06T03:42:42.867Z,100756.00
2022-11-06T03:45:15.761Z,100753.00
2022-11-06T03:47:46.405Z,100748.00
2022-11-06T03:50:21.149Z,100751.00
2022-11-06T03:52:54.311Z,100755.00
2022-11-06T03:55:25.815Z,100747.00
2022-11-06T03:57:57.060Z,100751.00
2022-11-06T04:00:26.261Z,100746.00
2022-11-06T04:03:04.831Z,100748.00
2022-11-06T04:05:38.184Z,100745.00
2022-11-06T04:08:26.050Z,100760.00
2022-11-06T04:11:13.942Z,100746.00
2022-11-06T04:13:56.291Z,100748.00
2022-11-06T04:16:26.450Z,100752.00
2022-11-06T04:18:54.172Z,100751.00
2022-11-06T04:21:31.841Z,100753.00
2022-11-06T04:24:27.637Z,100749.00
2022-11-06T04:27:06.340Z,100756.00
2022-11-06T04:29:48.849Z,100756.00
2022-11-06T04:32:25.054Z,100746.00
2022-11-06T04:35:02.139Z,100735.00
2022-11-06T04:37:37.252Z,100732.00
2022-11-06T04:40:10.341Z,100737.00
2022-11-06T04:42:43.341Z,100742.00
2022-11-06T04:45:15.801Z,100732.00
2022-11-06T04:47:46.328Z,100736.00
2022-11-06T04:50:16.541Z,100725.00
2022-11-06T04:52:46.177Z,100744.00
2022-11-06T04:55:13.893Z,100747.00
2022-11-06T04:57:41.609Z,100750.00
2022-11-06T05:00:14.458Z,100745.00
2022-11-06T05:02:43.873Z,100733.00
2022-11-06T05:05:11.593Z,100747.00
2022-11-06T05:07:39.327Z,100737.00
2022-11-06T05:10:07.633Z,100734.00
2022-11-06T05:12:35.356Z,100714.00
2022-11-06T05:15:03.097Z,100726.00
2022-11-06T05:17:36.179Z,100728.00
2022-11-06T05:20:07.049Z,100735.00
2022-11-06T05:22:52.388Z,100729.00
2022-11-06T05:25:20.116Z,100729.00
2022-11-06T05:27:47.834Z,100730.00
2022-11-06T05:30:15.741Z,100723.00
2022-11-06T05:32:43.557Z,100729.00
2022-11-06T05:35:12.963Z,100717.00
2022-11-06T05:37:40.660Z,100722.00
2022-11-06T05:40:09.486Z,100729.00
2022-11-06T05:42:38.756Z,100719.00
2022-11-06T05:45:07.933Z,100730.00
2022-11-06T05:47:35.807Z,100729.00
2022-11-06T05:50:03.520Z,100714.00
2022-11-06T05:52:32.614Z,100710.00
2022-11-06T05:55:00.409Z,100707.00
2022-11-06T05:57:28.208Z,100703.00
2022-11-06T05:59:55.919Z,100710.00
2022-11-06T06:02:23.882Z,100695.00
2022-11-06T06:04:51.701Z,100698.00
2022-11-06T06:07:19.405Z,100692.00
2022-11-06T06:09:48.705Z,100692.00
2022-11-06T06:12:16.540Z,100692.00
2022-11-06T06:14:49.304Z,100706.00
2022-11-06T06:17:18.090Z,100711.00
2022-11-06T06:19:45.808Z,100705.00
2022-11-06T06:22:13.528Z,100706.00
2022-11-06T06:24:41.381Z,100712.00
2022-11-06T06:27:10.562Z,100710.00
2022-11-06T06:29:38.372Z,100711.00
2022-11-06T06:32:06.557Z,100710.00
2022-11-06T06:34:34.304Z,100713.00
2022-11-06T06:37:02.024Z,100717.00
2022-11-06T06:39:29.758Z,100704.00
2022-11-06T06:41:57.455Z,100714.00
2022-11-06T06:44:26.554Z,100701.00
2022-11-06T06:46:54.273Z,100703.00
2022-11-06T06:49:22.016Z,100704.00
2022-11-06T06:51:50.093Z,100713.00
2022-11-06T06:54:17.919Z,100701.00
2022-11-06T06:56:45.668Z,100700.00
2022-11-06T06:59:13.378Z,100685.00
2022-11-06T07:01:42.523Z,100691.00
2022-11-06T07:04:11.223Z,100699.00
2022-11-06T07:06:38.943Z,100697.00
2022-11-06T07:09:07.256Z,100708.00
2022-11-06T07:11:34.962Z,100693.00
2022-11-06T07:14:02.692Z,100694.00
2022-11-06T07:16:32.370Z,100701.00
2022-11-06T07:19:01.545Z,100708.00
2022-11-06T07:21:29.494Z,100699.00
2022-11-06T07:23:57.221Z,100699.00
2022-11-06T07:26:24.969Z,100708.00
2022-11-06T07:28:52.683Z,100711.00
2022-11-06T07:31:20.374Z,100716.00
2022-11-06T07:33:48.140Z,100706.00
2022-11-06T07:36:17.302Z,100716.00
2022-11-06T07:38:45.323Z,100709.00
2022-11-06T07:41:15.473Z,100709.00
2022-11-06T07:43:43.608Z,100705.00
2022-11-06T07:46:13.385Z,100703.00
2022-11-06T07:48:41.181Z,100704.00
2022-11-06T07:51:11.043Z,100703.00
2022-11-06T07:53:41.220Z,100685.00
2022-11-06T07:56:09.790Z,100695.00
2022-11-06T07:58:37.824Z,100691.00
2022-11-06T08:01:05.874Z,100692.00
2022-11-06T08:03:34.363Z,100693.00
2022-11-06T08:06:05.111Z,100678.00
2022-11-06T08:08:32.910Z,100692.00
2022-11-06T08:11:04.450Z,100687.00
2022-11-06T08:13:33.899Z,100699.00
2022-11-06T08:16:04.838Z,100691.00
2022-11-06T08:18:32.600Z,100684.00
2022-11-06T08:21:00.770Z,100694.00
2022-11-06T08:23:28.551Z,100692.00
2022-11-06T08:25:57.599Z,100687.00
2022-11-06T08:28:27.651Z,100695.00
2022-11-06T08:30:55.462Z,100685.00
2022-11-06T08:33:24.720Z,100688.00
2022-11-06T08:35:52.471Z,100684.00
2022-11-06T08:38:20.202Z,100691.00
2022-11-06T08:40:53.200Z,100680.00
2022-11-06T08:43:24.171Z,100693.00
2022-11-06T08:45:53.631Z,100682.00
2022-11-06T08:48:21.398Z,100682.00
2022-11-06T08:50:49.620Z,100688.00
2022-11-06T08:53:18.141Z,100695.00
2022-11-06T08:55:46.237Z,100684.00
2022-11-06T08:58:14.638Z,100691.00
2022-11-06T09:00:42.689Z,100698.00
2022-11-06T09:03:13.777Z,100684.00
2022-11-06T09:05:42.472Z,100665.00
2022-11-06T09:08:10.447Z,100666.00
2022-11-06T09:10:38.954Z,100665.00
2022-11-06T09:13:07.171Z,100662.00
2022-11-06T09:15:35.337Z,100653.00
2022-11-06T09:18:03.034Z,100648.00
2022-11-06T09:20:32.119Z,100647.00
2022-11-06T09:23:02.920Z,100651.00
2022-11-06T09:25:30.975Z,100663.00
2022-11-06T09:27:59.849Z,100665.00
2022-11-06T09:30:29.797Z,100666.00
2022-11-06T09:32:59.569Z,100672.00
2022-11-06T09:35:28.883Z,100658.00
2022-11-06T09:38:01.930Z,100655.00
2022-11-06T09:40:34.717Z,100646.00
2022-11-06T09:43:12.903Z,100644.00
2022-11-06T09:45:41.581Z,100633.00
2022-11-06T09:48:19.168Z,100619.00
2022-11-06T09:50:52.084Z,100621.00
2022-11-06T09:53:27.643Z,100617.00
2022-11-06T09:55:58.356Z,100621.00
2022-11-06T09:58:29.800Z,100626.00
2022-11-06T10:01:01.315Z,100630.00
2022-11-06T10:03:36.823Z,100615.00
2022-11-06T10:06:05.053Z,100630.00
2022-11-06T10:08:34.811Z,100625.00
2022-11-06T10:11:06.602Z,100641.00
2022-11-06T10:13:54.275Z,100625.00
2022-11-06T10:16:31.679Z,100623.00
2022-11-06T10:19:10.827Z,100623.00
2022-11-06T10:21:48.452Z,100621.00
2022-11-06T10:24:33.184Z,100613.00
2022-11-06T10:27:05.710Z,100620.00
2022-11-06T10:29:45.556Z,100610.00
2022-11-06T10:32:32.438Z,100613.00
2022-11-06T10:35:03.715Z,100597.00
2022-11-06T10:37:35.925Z,100607.00
2022-11-06T10:40:13.056Z,100594.00
2022-11-06T10:42:42.257Z,100610.00
2022-11-06T10:45:15.480Z,100605.00
2022-11-06T10:47:46.453Z,100600.00
2022-11-06T10:50:15.843Z,100600.00
2022-11-06T10:52:52.505Z,100588.00
2022-11-06T10:55:39.814Z,100579.00
2022-11-06T10:58:09.583Z,100579.00
2022-11-06T11:00:38.629Z,100569.00
2022-11-06T11:03:08.808Z,100568.00
2022-11-06T11:05:40.450Z,100563.00
2022-11-06T11:08:28.532Z,100562.00
2022-11-06T11:11:05.163Z,100551.00
2022-11-06T11:13:34.041Z,100551.00
2022-11-06T11:16:03.766Z,100543.00
2022-11-06T11:18:32.227Z,100534.00
2022-11-06T11:21:08.969Z,100549.00
2022-11-06T11:23:36.779Z,100537.00
2022-11-06T11:26:22.215Z,100525.00
2022-11-06T11:28:56.447Z,100524.00
2022-11-06T11:31:30.117Z,100516.00
2022-11-06T11:34:00.278Z,100514.00
2022-11-06T11:36:28.083Z,100492.00
2022-11-06T11:38:56.022Z,100487.00
2022-11-06T11:41:26.450Z,100482.00
2022-11-06T11:43:58.661Z,100494.00
2022-11-06T11:46:27.191Z,100498.00
2022-11-06T11:48:57.470Z,100489.00
2022-11-06T11:51:32.863Z,100487.00
2022-11-06T11:54:06.112Z,100491.00
2022-11-06T11:57:03.689Z,100496.00
2022-11-06T11:59:35.870Z,100481.00
2022-11-06T12:02:12.223Z,100482.00
2022-11-06T12:04:43.646Z,100485.00
2022-11-06T12:07:23.379Z,100479.00
2022-11-06T12:09:51.617Z,100468.00
2022-11-06T12:12:24.958Z,100474.00
2022-11-06T12:15:18.550Z,100481.00
2022-11-06T12:17:51.995Z,100475.00
2022-11-06T12:20:25.790Z,100469.00
2022-11-06T12:22:56.103Z,100453.00
2022-11-06T12:25:30.111Z,100457.00
2022-11-06T12:28:01.572Z,100456.00
2022-11-06T12:30:32.833Z,100447.00
2022-11-06T12:33:07.095Z,100441.00
2022-11-06T12:35:41.173Z,100448.00
2022-11-06T12:38:18.860Z,100444.00
2022-11-06T12:40:50.064Z,100437.00
2022-11-06T12:43:26.592Z,100435.00
2022-11-06T12:46:34.510Z,100426.00
2022-11-06T12:49:18.948Z,100416.00
2022-11-06T12:52:00.819Z,100410.00
2022-11-06T12:54:46.293Z,100404.00
2022-11-06T12:57:22.950Z,100410.00
2022-11-06T13:00:03.785Z,100402.00
2022-11-06T13:02:46.176Z,100409.00
2022-11-06T13:05:19.174Z,100399.00
2022-11-06T13:08:01.205Z,100400.00
2022-11-06T13:10:52.537Z,100393.00
2022-11-06T13:13:37.769Z,100400.00
2022-11-06T13:16:17.655Z,100397.00
2022-11-06T13:18:53.238Z,100384.00
2022-11-06T13:21:29.834Z,100370.00
2022-11-06T13:24:01.827Z,100373.00
2022-11-06T13:26:36.725Z,100378.00
2022-11-06T13:29:07.245Z,100365.00
2022-11-06T13:31:41.212Z,100356.00
2022-11-06T13:34:16.131Z,100345.00
2022-11-06T13:36:44.840Z,100357.00
2022-11-06T13:39:18.902Z,100346.00
2022-11-06T13:41:46.635Z,100341.00
2022-11-06T13:44:16.221Z,100335.00
2022-11-06T13:46:56.204Z,100346.00
2022-11-06T13:49:30.606Z,100333.00
2022-11-06T13:52:00.570Z,100321.00
2022-11-06T13:54:41.606Z,100332.00
2022-11-06T13:57:33.508Z,100320.00
2022-11-06T14:00:21.000Z,100319.00
2022-11-06T14:03:15.532Z,100318.00
2022-11-06T14:05:54.546Z,100317.00
2022-11-06T14:08:25.665Z,100291.00
2022-11-06T14:10:57.586Z,100296.00
2022-11-06T14:13:30.648Z,100292.00
2022-11-06T14:16:05.006Z,100289.00
2022-11-06T14:18:34.853Z,100282.00
2022-11-06T14:21:43.788Z,100262.00
2022-11-06T14:24:39.087Z,100275.00
2022-11-06T14:27:10.472Z,100280.00
2022-11-06T14:29:59.527Z,100276.00
2022-11-06T14:32:42.445Z,100286.00
2022-11-06T14:35:49.376Z,100286.00
2022-11-06T14:38:20.433Z,100274.00
2022-11-06T14:40:48.213Z,100262.00
2022-11-06T14:43:21.261Z,100278.00
2022-11-06T14:45:53.598Z,100269.00
2022-11-06T14:48:30.880Z,100271.00
2022-11-06T14:51:02.041Z,100261.00
2022-11-06T14:53:34.140Z,100274.00
2022-11-06T14:56:04.169Z,100259.00
2022-11-06T14:58:34.023Z,100262.00
2022-11-06T15:01:03.948Z,100263.00
2022-11-06T15:03:37.607Z,100260.00
2022-11-06T15:06:35.943Z,100262.00
2022-11-06T15:09:06.242Z,100267.00
2022-11-06T15:11:55.899Z,100270.00
2022-11-06T15:15:00.431Z,100263.00
2022-11-06T15:17:33.486Z,100263.00
2022-11-06T15:20:08.258Z,100272.00
2022-11-06T15:22:43.930Z,100276.00
2022-11-06T15:25:22.949Z,100265.00
2022-11-06T15:27:59.119Z,100263.00
2022-11-06T15:30:27.473Z,100252.00
2022-11-06T15:32:56.334Z,100259.00
2022-11-06T15:35:27.401Z,100244.00
2022-11-06T15:38:04.234Z,100244.00
2022-11-06T15:40:33.719Z,100249.00
2022-11-06T15:43:06.455Z,100247.00
2022-11-06T15:45:34.339Z,100264.00
2022-11-06T15:48:03.465Z,100255.00
2022-11-06T15:50:32.280Z,100256.00
2022-11-06T15:53:20.625Z,100269.00
2022-11-06T15:55:53.782Z,100249.00
2022-11-06T15:58:31.147Z,100241.00
2022-11-06T16:01:00.529Z,100241.00
2022-11-06T16:03:30.375Z,100240.00
2022-11-06T16:06:00.690Z,100228.00
2022-11-06T16:08:32.246Z,100234.00
2022-11-06T16:11:01.110Z,100224.00
2022-11-06T16:13:29.538Z,100234.00
2022-11-06T16:15:58.888Z,100226.00
2022-11-06T16:18:29.568Z,100214.00
2022-11-06T16:21:01.070Z,100201.00
2022-11-06T16:23:38.803Z,100191.00
2022-11-06T16:26:10.484Z,100184.00
2022-11-06T16:28:44.804Z,100187.00
2022-11-06T16:31:18.671Z,100186.00
2022-11-06T16:33:55.831Z,100191.00
2022-11-06T16:36:24.070Z,100188.00
2022-11-06T16:38:53.907Z,100183.00
2022-11-06T16:41:40.361Z,100181.00
2022-11-06T16:44:29.287Z,100184.00
2022-11-06T16:47:17.115Z,100186.00
2022-11-06T16:49:52.813Z,100188.00
2022-11-06T16:52:27.796Z,100184.00
2022-11-06T16:55:00.179Z,100192.00
2022-11-06T16:57:32.044Z,100185.00
2022-11-06T17:00:03.090Z,100179.00
2022-11-06T17:02:33.884Z,100190.00
2022-11-06T17:05:10.353Z,100184.00
2022-11-06T17:07:38.291Z,100171.00
2022-11-06T17:10:36.282Z,100184.00
2022-11-06T17:13:16.685Z,100186.00
2022-11-06T17:15:46.652Z,100172.00
2022-11-06T17:18:20.101Z,100178.00
2022-11-06T17:20:51.868Z,100160.00
2022-11-06T17:23:20.005Z,100176.00
2022-11-06T17:25:50.055Z,100169.00
2022-11-06T17:28:18.840Z,100163.00
2022-11-06T17:30:47.543Z,100151.00
2022-11-06T17:33:16.849Z,100165.00
2022-11-06T17:35:44.844Z,100157.00
2022-11-06T17:38:15.174Z,100169.00
2022-11-06T17:40:43.124Z,100155.00
2022-11-06T17:43:13.280Z,100145.00
2022-11-06T17:45:44.371Z,100157.00
2022-11-06T17:48:12.195Z,100156.00
2022-11-06T17:50:53.839Z,100151.00
2022-11-06T17:53:21.697Z,100141.00
2022-11-06T17:55:49.507Z,100145.00
2022-11-06T17:58:18.643Z,100140.00
2022-11-06T18:00:46.539Z,100131.00
2022-11-06T18:03:19.049Z,100133.00
2022-11-06T18:05:47.385Z,100113.00
2022-11-06T18:08:16.214Z,100098.00
2022-11-06T18:10:44.228Z,100099.00
2022-11-06T18:13:11.994Z,100085.00
2022-11-06T18:15:41.325Z,100090.00
2022-11-06T18:18:09.191Z,100102.00
2022-11-06T18:20:36.934Z,100112.00
2022-11-06T18:23:04.756Z,100109.00
2022-11-06T18:25:32.492Z,100111.00
2022-11-06T18:28:03.687Z,100115.00
2022-11-06T18:30:31.774Z,100113.00
2022-11-06T18:33:00.947Z,100116.00
2022-11-06T18:35:28.666Z,100107.00
2022-11-06T18:37:56.409Z,100102.00
2022-11-06T18:40:24.107Z,100102.00
2022-11-06T18:42:54.334Z,100093.00
2022-11-06T18:45:22.101Z,100099.00
2022-11-06T18:47:49.934Z,100103.00
2022-11-06T18:50:19.222Z,100086.00
2022-11-06T18:52:58.823Z,100088.00
2022-11-06T18:55:26.713Z,100073.00
2022-11-06T18:57:54.917Z,100083.00
2022-11-06T19:00:22.950Z,100081.00
2022-11-06T19:02:50.933Z,100066.00
2022-11-06T19:05:20.227Z,100065.00
2022-11-06T19:07:52.796Z,100069.00
2022-11-06T19:10:22.882Z,100066.00
2022-11-06T19:12:50.600Z,100080.00
2022-11-06T19:15:18.433Z,100087.00
2022-11-06T19:17:46.121Z,100074.00
2022-11-06T19:20:15.185Z,100084.00
2022-11-06T19:22:44.522Z,100077.00
2022-11-06T19:25:12.267Z,100086.00
2022-11-06T19:27:39.969Z,100078.00
2022-11-06T19:30:09.030Z,100081.00
2022-11-06T19:32:36.901Z,100079.00
2022-11-06T19:35:05.058Z,100077.00
2022-11-06T19:37:33.124Z,100083.00
2022-11-06T19:40:06.106Z,100069.00
2022-11-06T19:42:34.270Z,100057.00
2022-11-06T19:45:02.052Z,100067.00
2022-11-06T19:47:32.205Z,100050.00
2022-11-06T19:50:00.085Z,100047.00
2022-11-06T19:52:43.463Z,100055.00
2022-11-06T19:55:25.866Z,100058.00
2022-11-06T19:57:55.495Z,100064.00
2022-11-06T20:00:23.226Z,100069.00
2022-11-06T20:02:51.225Z,100063.00
2022-11-06T20:05:19.207Z,100081.00
2022-11-06T20:07:47.017Z,100057.00
2022-11-06T20:10:16.563Z,100057.00
2022-11-06T20:12:44.289Z,100049.00
2022-11-06T20:15:12.326Z,100070.00
2022-11-06T20:17:40.143Z,100064.00
2022-11-06T20:20:09.255Z,100052.00
2022-11-06T20:22:37.039Z,100038.00
2022-11-06T20:25:05.021Z,100014.00
2022-11-06T20:27:34.192Z,99989.00
2022-11-06T20:30:02.853Z,99976.00
2022-11-06T20:32:30.699Z,99995.00
2022-11-06T20:34:58.450Z,99998.00
2022-11-06T20:37:26.728Z,100013.00
2022-11-06T20:39:54.426Z,100040.00
2022-11-06T20:42:22.235Z,100047.00
2022-11-06T20:44:51.379Z,100067.00
2022-11-06T20:47:19.164Z,100080.00
2022-11-06T20:49:46.911Z,100086.00
2022-11-06T20:52:15.455Z,100086.00
2022-11-06T20:54:47.111Z,100056.00
2022-11-06T20:57:15.831Z,100039.00
2022-11-06T20:59:43.835Z,100045.00
2022-11-06T21:02:13.146Z,100044.00
2022-11-06T21:04:41.010Z,100041.00
2022-11-06T21:07:08.821Z,100030.00
2022-11-06T21:09:37.395Z,100017.00
2022-11-06T21:12:05.334Z,100019.00
2022-11-06T21:14:33.711Z,100021.00
2022-11-06T21:17:02.343Z,100018.00
2022-11-06T21:19:33.036Z,100000.00
2022-11-06T21:22:01.016Z,100014.00
2022-11-06T21:24:28.755Z,100030.00
2022-11-06T21:26:57.273Z,100038.00
2022-11-06T21:29:25.566Z,100059.00
2022-11-06T21:31:54.475Z,100073.00
2022-11-06T21:34:22.268Z,100056.00
2022-11-06T21:36:51.407Z,100045.00
2022-11-06T21:39:20.669Z,100043.00
2022-11-06T21:41:48.595Z,100035.00
2022-11-06T21:44:18.110Z,100039.00
2022-11-06T21:46:46.392Z,100052.00
2022-11-06T21:49:14.494Z,100042.00
2022-11-06T21:51:42.834Z,100053.00
2022-11-06T21:54:30.522Z,100035.00
2022-11-06T21:56:58.252Z,100040.00
2022-11-06T21:59:27.850Z,100032.00
2022-11-06T22:01:55.986Z,100034.00
2022-11-06T22:04:24.369Z,100030.00
2022-11-06T22:06:52.984Z,100019.00
2022-11-06T22:09:25.299Z,100015.00
2022-11-06T22:11:53.847Z,100009.00
2022-11-06T22:14:21.580Z,100008.00
2022-11-06T22:16:49.860Z,100003.00
2022-11-06T22:19:18.591Z,100007.00
2022-11-06T22:21:46.704Z,100010.00
2022-11-06T22:24:15.819Z,100007.00
2022-11-06T22:26:44.988Z,100028.00
2022-11-06T22:29:14.348Z,100001.00
2022-11-06T22:31:42.452Z,100004.00
2022-11-06T22:34:12.812Z,99998.00
2022-11-06T22:36:41.193Z,100005.00
2022-11-06T22:39:10.345Z,100011.00
2022-11-06T22:41:39.119Z,100015.00
2022-11-06T22:44:08.953Z,100017.00
2022-11-06T22:46:37.008Z,100006.00
2022-11-06T22:49:06.108Z,100020.00
2022-11-06T22:51:34.744Z,100012.00
2022-11-06T22:54:03.382Z,100009.00
2022-11-06T22:56:32.221Z,100013.00
2022-11-06T22:59:01.613Z,100019.00
2022-11-06T23:01:36.147Z,100013.00
2022-11-06T23:04:10.189Z,100005.00
2022-11-06T23:06:37.942Z,99993.00
2022-11-06T23:09:05.685Z,100001.00
2022-11-06T23:11:33.811Z,99998.00
2022-11-06T23:14:07.428Z,99997.00
2022-11-06T23:16:55.665Z,99991.00
2022-11-06T23:19:24.254Z,100004.00
2022-11-06T23:21:52.499Z,100012.00
2022-11-06T23:24:20.334Z,100004.00
2022-11-06T23:26:48.090Z,100013.00
2022-11-06T23:29:15.888Z,100010.00
2022-11-06T23:31:44.949Z,100016.00
2022-11-06T23:34:12.697Z,100027.00
2022-11-06T23:36:40.416Z,100020.00
2022-11-06T23:39:08.192Z,100033.00
2022-11-06T23:41:46.627Z,100016.00
2022-11-06T23:44:32.348Z,100031.00
2022-11-06T23:47:01.648Z,100039.00
2022-11-06T23:49:29.464Z,100047.00
2022-11-06T23:51:57.440Z,100035.00
2022-11-06T23:54:25.248Z,100041.00
2022-11-06T23:56:53.013Z,100037.00
2022-11-06T23:59:20.736Z,100038.00
